sensor_id;sensor_type;location;lat;lon;timestamp;P1;durP1;ratioP1;P2;durP2;ratioP2
21274;SDS011;36472;52.170;20.884;2023-06-24T00:02:09;6.03;;;4.75;;
21274;SDS011;36472;52.170;20.884;2023-06-24T00:04:40;5.85;;;4.50;;
21274;SDS011;36472;52.170;20.884;2023-06-24T00:07:09;7.75;;;4.35;;
21274;SDS011;36472;52.170;20.884;2023-06-24T00:09:38;6.60;;;4.82;;
21274;SDS011;36472;52.170;20.884;2023-06-24T00:12:07;5.68;;;4.10;;
21274;SDS011;36472;52.170;20.884;2023-06-24T00:14:36;7.65;;;4.88;;
21274;SDS011;36472;52.170;20.884;2023-06-24T00:17:05;5.65;;;4.47;;
21274;SDS011;36472;52.170;20.884;2023-06-24T00:19:35;5.70;;;4.60;;
21274;SDS011;36472;52.170;20.884;2023-06-24T00:22:05;6.55;;;4.28;;
21274;SDS011;36472;52.170;20.884;2023-06-24T00:24:35;4.95;;;4.20;;
21274;SDS011;36472;52.170;20.884;2023-06-24T00:27:04;5.22;;;4.60;;
21274;SDS011;36472;52.170;20.884;2023-06-24T00:29:34;6.38;;;4.35;;
21274;SDS011;36472;52.170;20.884;2023-06-24T00:32:03;6.30;;;4.30;;
21274;SDS011;36472;52.170;20.884;2023-06-24T00:34:33;5.97;;;4.00;;
21274;SDS011;36472;52.170;20.884;2023-06-24T00:37:02;5.70;;;4.35;;
21274;SDS011;36472;52.170;20.884;2023-06-24T00:39:35;4.97;;;4.47;;
21274;SDS011;36472;52.170;20.884;2023-06-24T00:42:05;6.13;;;5.18;;
21274;SDS011;36472;52.170;20.884;2023-06-24T00:44:35;6.35;;;4.50;;
21274;SDS011;36472;52.170;20.884;2023-06-24T00:47:04;5.65;;;4.55;;
21274;SDS011;36472;52.170;20.884;2023-06-24T00:49:36;5.55;;;4.35;;
21274;SDS011;36472;52.170;20.884;2023-06-24T00:52:05;5.50;;;4.20;;
21274;SDS011;36472;52.170;20.884;2023-06-24T00:54:39;5.22;;;4.03;;
21274;SDS011;36472;52.170;20.884;2023-06-24T00:57:08;6.35;;;4.05;;
21274;SDS011;36472;52.170;20.884;2023-06-24T00:59:38;6.22;;;4.22;;
21274;SDS011;36472;52.170;20.884;2023-06-24T01:02:11;4.88;;;4.18;;
21274;SDS011;36472;52.170;20.884;2023-06-24T01:04:40;5.25;;;4.40;;
21274;SDS011;36472;52.170;20.884;2023-06-24T01:07:10;6.40;;;4.20;;
21274;SDS011;36472;52.170;20.884;2023-06-24T01:09:41;6.32;;;4.38;;
21274;SDS011;36472;52.170;20.884;2023-06-24T01:12:10;6.90;;;4.70;;
21274;SDS011;36472;52.170;20.884;2023-06-24T01:14:39;5.18;;;4.32;;
21274;SDS011;36472;52.170;20.884;2023-06-24T01:17:09;6.60;;;4.72;;
21274;SDS011;36472;52.170;20.884;2023-06-24T01:19:59;5.25;;;4.53;;
21274;SDS011;36472;52.170;20.884;2023-06-24T01:22:48;5.95;;;4.40;;
21274;SDS011;36472;52.170;20.884;2023-06-24T01:26:18;6.22;;;4.53;;
21274;SDS011;36472;52.170;20.884;2023-06-24T01:29:08;7.10;;;4.90;;
21274;SDS011;36472;52.170;20.884;2023-06-24T01:32:15;5.50;;;4.10;;
21274;SDS011;36472;52.170;20.884;2023-06-24T01:34:56;5.72;;;5.07;;
21274;SDS011;36472;52.170;20.884;2023-06-24T01:37:31;5.82;;;4.25;;
21274;SDS011;36472;52.170;20.884;2023-06-24T01:40:09;6.13;;;4.20;;
21274;SDS011;36472;52.170;20.884;2023-06-24T01:42:44;5.70;;;4.50;;
21274;SDS011;36472;52.170;20.884;2023-06-24T01:45:18;5.93;;;4.65;;
21274;SDS011;36472;52.170;20.884;2023-06-24T01:47:54;4.90;;;4.25;;
21274;SDS011;36472;52.170;20.884;2023-06-24T01:50:30;5.22;;;4.47;;
21274;SDS011;36472;52.170;20.884;2023-06-24T01:53:04;5.95;;;4.63;;
21274;SDS011;36472;52.170;20.884;2023-06-24T01:55:35;5.40;;;4.70;;
21274;SDS011;36472;52.170;20.884;2023-06-24T01:58:09;6.72;;;4.93;;
21274;SDS011;36472;52.170;20.884;2023-06-24T02:00:41;8.40;;;4.35;;
21274;SDS011;36472;52.170;20.884;2023-06-24T02:03:13;6.38;;;4.90;;
21274;SDS011;36472;52.170;20.884;2023-06-24T02:05:43;5.47;;;4.90;;
21274;SDS011;36472;52.170;20.884;2023-06-24T02:08:18;7.05;;;4.88;;
21274;SDS011;36472;52.170;20.884;2023-06-24T02:10:50;6.25;;;4.80;;
21274;SDS011;36472;52.170;20.884;2023-06-24T02:13:20;5.65;;;4.68;;
21274;SDS011;36472;52.170;20.884;2023-06-24T02:15:51;6.30;;;4.75;;
21274;SDS011;36472;52.170;20.884;2023-06-24T02:18:26;6.22;;;5.00;;
21274;SDS011;36472;52.170;20.884;2023-06-24T02:20:56;5.57;;;5.00;;
21274;SDS011;36472;52.170;20.884;2023-06-24T02:23:27;5.88;;;4.75;;
21274;SDS011;36472;52.170;20.884;2023-06-24T02:25:57;6.10;;;4.43;;
21274;SDS011;36472;52.170;20.884;2023-06-24T02:28:31;5.13;;;4.50;;
21274;SDS011;36472;52.170;20.884;2023-06-24T02:31:02;6.45;;;5.28;;
21274;SDS011;36472;52.170;20.884;2023-06-24T02:33:35;6.13;;;5.20;;
21274;SDS011;36472;52.170;20.884;2023-06-24T02:36:04;6.10;;;5.40;;
21274;SDS011;36472;52.170;20.884;2023-06-24T02:38:34;6.03;;;5.10;;
21274;SDS011;36472;52.170;20.884;2023-06-24T02:41:03;6.60;;;5.05;;
21274;SDS011;36472;52.170;20.884;2023-06-24T02:43:32;6.57;;;5.25;;
21274;SDS011;36472;52.170;20.884;2023-06-24T02:46:02;7.28;;;5.43;;
21274;SDS011;36472;52.170;20.884;2023-06-24T02:48:35;7.57;;;5.88;;
21274;SDS011;36472;52.170;20.884;2023-06-24T02:51:07;7.72;;;5.47;;
21274;SDS011;36472;52.170;20.884;2023-06-24T02:53:39;6.25;;;4.97;;
21274;SDS011;36472;52.170;20.884;2023-06-24T02:56:11;5.90;;;5.15;;
21274;SDS011;36472;52.170;20.884;2023-06-24T02:58:44;5.75;;;5.07;;
21274;SDS011;36472;52.170;20.884;2023-06-24T03:01:21;6.97;;;5.35;;
21274;SDS011;36472;52.170;20.884;2023-06-24T03:03:55;5.30;;;4.70;;
21274;SDS011;36472;52.170;20.884;2023-06-24T03:06:25;6.88;;;5.07;;
21274;SDS011;36472;52.170;20.884;2023-06-24T03:08:59;6.78;;;5.20;;
21274;SDS011;36472;52.170;20.884;2023-06-24T03:11:31;7.50;;;5.75;;
21274;SDS011;36472;52.170;20.884;2023-06-24T03:14:09;5.78;;;5.13;;
21274;SDS011;36472;52.170;20.884;2023-06-24T03:16:41;6.90;;;5.32;;
21274;SDS011;36472;52.170;20.884;2023-06-24T03:23:47;6.57;;;5.30;;
21274;SDS011;36472;52.170;20.884;2023-06-24T03:26:17;9.57;;;5.50;;
21274;SDS011;36472;52.170;20.884;2023-06-24T03:28:46;5.93;;;4.97;;
21274;SDS011;36472;52.170;20.884;2023-06-24T03:31:17;7.80;;;6.05;;
21274;SDS011;36472;52.170;20.884;2023-06-24T03:33:50;7.13;;;5.57;;
21274;SDS011;36472;52.170;20.884;2023-06-24T03:36:20;7.88;;;5.68;;
21274;SDS011;36472;52.170;20.884;2023-06-24T03:38:52;7.47;;;5.75;;
21274;SDS011;36472;52.170;20.884;2023-06-24T03:41:22;7.15;;;5.47;;
21274;SDS011;36472;52.170;20.884;2023-06-24T03:43:53;6.40;;;5.50;;
21274;SDS011;36472;52.170;20.884;2023-06-24T03:46:23;7.10;;;5.55;;
21274;SDS011;36472;52.170;20.884;2023-06-24T03:48:53;6.05;;;5.30;;
21274;SDS011;36472;52.170;20.884;2023-06-24T03:51:22;6.00;;;5.25;;
21274;SDS011;36472;52.170;20.884;2023-06-24T03:53:53;7.10;;;5.72;;
21274;SDS011;36472;52.170;20.884;2023-06-24T03:56:22;6.70;;;6.00;;
21274;SDS011;36472;52.170;20.884;2023-06-24T03:58:51;6.57;;;5.82;;
21274;SDS011;36472;52.170;20.884;2023-06-24T04:01:20;8.65;;;5.97;;
21274;SDS011;36472;52.170;20.884;2023-06-24T04:03:50;6.75;;;5.78;;
21274;SDS011;36472;52.170;20.884;2023-06-24T04:06:18;7.53;;;5.90;;
21274;SDS011;36472;52.170;20.884;2023-06-24T04:08:48;5.75;;;5.15;;
21274;SDS011;36472;52.170;20.884;2023-06-24T04:11:20;8.65;;;5.93;;
21274;SDS011;36472;52.170;20.884;2023-06-24T04:13:49;7.50;;;5.93;;
21274;SDS011;36472;52.170;20.884;2023-06-24T04:16:19;7.32;;;5.85;;
21274;SDS011;36472;52.170;20.884;2023-06-24T04:18:48;10.10;;;6.05;;
21274;SDS011;36472;52.170;20.884;2023-06-24T04:21:17;7.05;;;5.55;;
21274;SDS011;36472;52.170;20.884;2023-06-24T04:23:46;6.18;;;5.32;;
21274;SDS011;36472;52.170;20.884;2023-06-24T04:26:16;7.43;;;6.15;;
21274;SDS011;36472;52.170;20.884;2023-06-24T04:28:47;8.25;;;6.78;;
21274;SDS011;36472;52.170;20.884;2023-06-24T04:31:16;6.25;;;5.40;;
21274;SDS011;36472;52.170;20.884;2023-06-24T04:33:45;7.68;;;6.32;;
21274;SDS011;36472;52.170;20.884;2023-06-24T04:36:14;7.60;;;5.80;;
21274;SDS011;36472;52.170;20.884;2023-06-24T04:38:43;6.15;;;5.25;;
21274;SDS011;36472;52.170;20.884;2023-06-24T04:41:12;7.78;;;5.80;;
21274;SDS011;36472;52.170;20.884;2023-06-24T04:43:41;8.02;;;5.78;;
21274;SDS011;36472;52.170;20.884;2023-06-24T04:46:12;6.70;;;5.97;;
21274;SDS011;36472;52.170;20.884;2023-06-24T04:48:41;7.28;;;5.40;;
21274;SDS011;36472;52.170;20.884;2023-06-24T04:51:10;7.22;;;5.72;;
21274;SDS011;36472;52.170;20.884;2023-06-24T04:53:39;8.07;;;4.78;;
21274;SDS011;36472;52.170;20.884;2023-06-24T04:56:07;6.65;;;5.70;;
21274;SDS011;36472;52.170;20.884;2023-06-24T04:58:36;7.30;;;5.80;;
21274;SDS011;36472;52.170;20.884;2023-06-24T05:01:05;8.10;;;5.70;;
21274;SDS011;36472;52.170;20.884;2023-06-24T05:03:36;7.00;;;5.63;;
21274;SDS011;36472;52.170;20.884;2023-06-24T05:06:05;7.25;;;5.85;;
21274;SDS011;36472;52.170;20.884;2023-06-24T05:08:34;7.57;;;5.57;;
21274;SDS011;36472;52.170;20.884;2023-06-24T05:11:03;7.35;;;5.47;;
21274;SDS011;36472;52.170;20.884;2023-06-24T05:13:32;8.90;;;5.50;;
21274;SDS011;36472;52.170;20.884;2023-06-24T05:16:01;7.22;;;5.25;;
21274;SDS011;36472;52.170;20.884;2023-06-24T05:18:30;7.22;;;5.03;;
21274;SDS011;36472;52.170;20.884;2023-06-24T05:21:00;7.63;;;5.43;;
21274;SDS011;36472;52.170;20.884;2023-06-24T05:23:29;8.30;;;5.47;;
21274;SDS011;36472;52.170;20.884;2023-06-24T05:25:58;7.18;;;5.00;;
21274;SDS011;36472;52.170;20.884;2023-06-24T05:33:00;8.02;;;5.05;;
21274;SDS011;36472;52.170;20.884;2023-06-24T05:35:28;7.60;;;5.13;;
21274;SDS011;36472;52.170;20.884;2023-06-24T05:42:32;7.93;;;5.03;;
21274;SDS011;36472;52.170;20.884;2023-06-24T05:49:32;7.00;;;5.32;;
21274;SDS011;36472;52.170;20.884;2023-06-24T05:52:01;9.35;;;5.30;;
21274;SDS011;36472;52.170;20.884;2023-06-24T05:54:30;7.00;;;5.00;;
21274;SDS011;36472;52.170;20.884;2023-06-24T05:56:59;6.07;;;5.00;;
21274;SDS011;36472;52.170;20.884;2023-06-24T06:04:00;5.97;;;5.10;;
21274;SDS011;36472;52.170;20.884;2023-06-24T06:06:29;8.77;;;5.25;;
21274;SDS011;36472;52.170;20.884;2023-06-24T06:08:59;5.82;;;4.50;;
21274;SDS011;36472;52.170;20.884;2023-06-24T06:11:27;6.25;;;4.75;;
21274;SDS011;36472;52.170;20.884;2023-06-24T06:13:57;5.90;;;4.38;;
21274;SDS011;36472;52.170;20.884;2023-06-24T06:16:25;8.48;;;4.32;;
21274;SDS011;36472;52.170;20.884;2023-06-24T06:18:55;5.50;;;4.70;;
21274;SDS011;36472;52.170;20.884;2023-06-24T06:21:25;6.43;;;4.50;;
21274;SDS011;36472;52.170;20.884;2023-06-24T06:23:54;8.18;;;4.70;;
21274;SDS011;36472;52.170;20.884;2023-06-24T06:26:23;6.57;;;4.40;;
21274;SDS011;36472;52.170;20.884;2023-06-24T06:28:52;6.32;;;4.28;;
21274;SDS011;36472;52.170;20.884;2023-06-24T06:31:21;6.25;;;4.53;;
21274;SDS011;36472;52.170;20.884;2023-06-24T06:33:53;6.68;;;4.65;;
21274;SDS011;36472;52.170;20.884;2023-06-24T06:36:22;6.65;;;4.68;;
21274;SDS011;36472;52.170;20.884;2023-06-24T06:38:52;6.60;;;4.68;;
21274;SDS011;36472;52.170;20.884;2023-06-24T06:41:21;7.72;;;3.88;;
21274;SDS011;36472;52.170;20.884;2023-06-24T06:43:52;8.43;;;4.57;;
21274;SDS011;36472;52.170;20.884;2023-06-24T06:46:22;7.90;;;4.70;;
21274;SDS011;36472;52.170;20.884;2023-06-24T06:54:07;6.07;;;4.47;;
21274;SDS011;36472;52.170;20.884;2023-06-24T06:56:36;6.10;;;4.50;;
21274;SDS011;36472;52.170;20.884;2023-06-24T06:59:05;7.40;;;4.47;;
21274;SDS011;36472;52.170;20.884;2023-06-24T07:01:33;6.97;;;4.47;;
21274;SDS011;36472;52.170;20.884;2023-06-24T07:04:03;9.25;;;4.20;;
21274;SDS011;36472;52.170;20.884;2023-06-24T07:06:32;6.25;;;4.68;;
21274;SDS011;36472;52.170;20.884;2023-06-24T07:09:01;7.95;;;5.25;;
21274;SDS011;36472;52.170;20.884;2023-06-24T07:11:31;5.60;;;5.03;;
21274;SDS011;36472;52.170;20.884;2023-06-24T07:14:01;6.45;;;5.40;;
21274;SDS011;36472;52.170;20.884;2023-06-24T07:16:30;6.75;;;4.85;;
21274;SDS011;36472;52.170;20.884;2023-06-24T07:19:00;5.95;;;5.15;;
21274;SDS011;36472;52.170;20.884;2023-06-24T07:21:29;9.80;;;4.80;;
21274;SDS011;36472;52.170;20.884;2023-06-24T07:23:58;8.85;;;5.00;;
21274;SDS011;36472;52.170;20.884;2023-06-24T07:26:27;7.47;;;5.22;;
21274;SDS011;36472;52.170;20.884;2023-06-24T07:28:58;6.45;;;5.07;;
21274;SDS011;36472;52.170;20.884;2023-06-24T07:31:35;8.02;;;5.55;;
21274;SDS011;36472;52.170;20.884;2023-06-24T07:34:05;10.50;;;5.72;;
21274;SDS011;36472;52.170;20.884;2023-06-24T07:41:06;7.75;;;5.05;;
21274;SDS011;36472;52.170;20.884;2023-06-24T07:43:35;5.93;;;5.10;;
21274;SDS011;36472;52.170;20.884;2023-06-24T07:46:05;5.07;;;4.45;;
21274;SDS011;36472;52.170;20.884;2023-06-24T07:48:34;6.13;;;4.60;;
21274;SDS011;36472;52.170;20.884;2023-06-24T07:51:03;6.68;;;4.30;;
21274;SDS011;36472;52.170;20.884;2023-06-24T07:53:32;6.20;;;4.70;;
21274;SDS011;36472;52.170;20.884;2023-06-24T08:00:34;6.05;;;4.50;;
21274;SDS011;36472;52.170;20.884;2023-06-24T08:03:06;7.68;;;4.28;;
21274;SDS011;36472;52.170;20.884;2023-06-24T08:05:37;5.15;;;4.30;;
21274;SDS011;36472;52.170;20.884;2023-06-24T08:08:07;6.43;;;4.38;;
21274;SDS011;36472;52.170;20.884;2023-06-24T08:10:37;6.68;;;4.78;;
21274;SDS011;36472;52.170;20.884;2023-06-24T08:13:06;5.43;;;4.22;;
21274;SDS011;36472;52.170;20.884;2023-06-24T08:15:35;6.10;;;4.20;;
21274;SDS011;36472;52.170;20.884;2023-06-24T08:18:09;5.45;;;4.32;;
21274;SDS011;36472;52.170;20.884;2023-06-24T08:20:38;6.50;;;3.88;;
21274;SDS011;36472;52.170;20.884;2023-06-24T08:23:07;5.40;;;4.30;;
21274;SDS011;36472;52.170;20.884;2023-06-24T08:25:36;4.95;;;4.10;;
21274;SDS011;36472;52.170;20.884;2023-06-24T08:28:05;5.60;;;4.10;;
21274;SDS011;36472;52.170;20.884;2023-06-24T08:30:34;4.45;;;3.88;;
21274;SDS011;36472;52.170;20.884;2023-06-24T08:33:03;6.28;;;3.50;;
21274;SDS011;36472;52.170;20.884;2023-06-24T08:40:05;4.70;;;3.85;;
21274;SDS011;36472;52.170;20.884;2023-06-24T08:42:35;8.40;;;3.63;;
21274;SDS011;36472;52.170;20.884;2023-06-24T08:45:05;5.90;;;4.03;;
21274;SDS011;36472;52.170;20.884;2023-06-24T08:47:35;4.85;;;3.38;;
21274;SDS011;36472;52.170;20.884;2023-06-24T08:50:05;3.67;;;3.30;;
21274;SDS011;36472;52.170;20.884;2023-06-24T08:52:42;4.60;;;3.30;;
21274;SDS011;36472;52.170;20.884;2023-06-24T08:55:19;4.00;;;3.58;;
21274;SDS011;36472;52.170;20.884;2023-06-24T08:57:51;6.32;;;3.63;;
21274;SDS011;36472;52.170;20.884;2023-06-24T09:00:20;6.60;;;3.85;;
21274;SDS011;36472;52.170;20.884;2023-06-24T09:02:49;4.90;;;3.70;;
21274;SDS011;36472;52.170;20.884;2023-06-24T09:05:18;7.32;;;4.10;;
21274;SDS011;36472;52.170;20.884;2023-06-24T09:07:47;5.57;;;3.97;;
21274;SDS011;36472;52.170;20.884;2023-06-24T09:10:29;4.30;;;3.70;;
21274;SDS011;36472;52.170;20.884;2023-06-24T09:13:00;4.63;;;3.72;;
21274;SDS011;36472;52.170;20.884;2023-06-24T09:15:30;7.60;;;3.97;;
21274;SDS011;36472;52.170;20.884;2023-06-24T09:18:00;7.22;;;4.20;;
21274;SDS011;36472;52.170;20.884;2023-06-24T09:20:31;4.80;;;3.58;;
21274;SDS011;36472;52.170;20.884;2023-06-24T09:23:06;6.55;;;3.85;;
21274;SDS011;36472;52.170;20.884;2023-06-24T09:25:37;5.68;;;4.03;;
21274;SDS011;36472;52.170;20.884;2023-06-24T09:28:06;6.78;;;4.45;;
21274;SDS011;36472;52.170;20.884;2023-06-24T09:30:35;6.47;;;4.20;;
21274;SDS011;36472;52.170;20.884;2023-06-24T09:33:04;5.30;;;4.07;;
21274;SDS011;36472;52.170;20.884;2023-06-24T09:35:34;7.30;;;3.80;;
21274;SDS011;36472;52.170;20.884;2023-06-24T09:38:04;5.65;;;3.88;;
21274;SDS011;36472;52.170;20.884;2023-06-24T09:40:34;4.22;;;3.85;;
21274;SDS011;36472;52.170;20.884;2023-06-24T09:47:37;7.22;;;4.30;;
21274;SDS011;36472;52.170;20.884;2023-06-24T09:50:06;5.53;;;3.83;;
21274;SDS011;36472;52.170;20.884;2023-06-24T09:52:36;7.85;;;4.60;;
21274;SDS011;36472;52.170;20.884;2023-06-24T09:55:07;4.70;;;4.20;;
21274;SDS011;36472;52.170;20.884;2023-06-24T09:57:38;5.00;;;4.10;;
21274;SDS011;36472;52.170;20.884;2023-06-24T10:00:12;5.20;;;4.28;;
21274;SDS011;36472;52.170;20.884;2023-06-24T10:07:20;4.93;;;4.20;;
21274;SDS011;36472;52.170;20.884;2023-06-24T10:09:49;5.22;;;3.85;;
21274;SDS011;36472;52.170;20.884;2023-06-24T10:12:19;4.93;;;3.88;;
21274;SDS011;36472;52.170;20.884;2023-06-24T10:14:51;4.40;;;3.85;;
21274;SDS011;36472;52.170;20.884;2023-06-24T10:17:20;5.07;;;3.90;;
21274;SDS011;36472;52.170;20.884;2023-06-24T10:19:51;4.68;;;3.42;;
21274;SDS011;36472;52.170;20.884;2023-06-24T10:22:23;5.28;;;4.10;;
21274;SDS011;36472;52.170;20.884;2023-06-24T10:24:58;6.10;;;4.43;;
21274;SDS011;36472;52.170;20.884;2023-06-24T10:27:29;5.57;;;4.32;;
21274;SDS011;36472;52.170;20.884;2023-06-24T10:30:16;5.53;;;3.85;;
21274;SDS011;36472;52.170;20.884;2023-06-24T10:32:47;6.13;;;4.20;;
21274;SDS011;36472;52.170;20.884;2023-06-24T10:35:22;6.95;;;4.25;;
21274;SDS011;36472;52.170;20.884;2023-06-24T10:37:55;4.40;;;3.95;;
21274;SDS011;36472;52.170;20.884;2023-06-24T10:47:44;5.32;;;4.25;;
21274;SDS011;36472;52.170;20.884;2023-06-24T10:50:16;6.63;;;4.50;;
21274;SDS011;36472;52.170;20.884;2023-06-24T10:52:47;5.72;;;4.53;;
21274;SDS011;36472;52.170;20.884;2023-06-24T10:55:23;5.50;;;4.65;;
21274;SDS011;36472;52.170;20.884;2023-06-24T10:57:53;5.43;;;4.10;;
21274;SDS011;36472;52.170;20.884;2023-06-24T11:00:22;7.88;;;4.80;;
21274;SDS011;36472;52.170;20.884;2023-06-24T11:02:51;4.57;;;4.13;;
21274;SDS011;36472;52.170;20.884;2023-06-24T11:05:21;10.35;;;4.50;;
21274;SDS011;36472;52.170;20.884;2023-06-24T11:12:24;5.35;;;4.25;;
21274;SDS011;36472;52.170;20.884;2023-06-24T11:14:55;6.35;;;4.40;;
21274;SDS011;36472;52.170;20.884;2023-06-24T11:17:27;6.93;;;4.68;;
21274;SDS011;36472;52.170;20.884;2023-06-24T11:19:57;5.72;;;4.35;;
21274;SDS011;36472;52.170;20.884;2023-06-24T11:22:26;6.63;;;4.43;;
21274;SDS011;36472;52.170;20.884;2023-06-24T11:24:55;8.48;;;5.25;;
21274;SDS011;36472;52.170;20.884;2023-06-24T11:27:26;7.20;;;4.88;;
21274;SDS011;36472;52.170;20.884;2023-06-24T11:29:57;7.80;;;4.97;;
21274;SDS011;36472;52.170;20.884;2023-06-24T11:32:35;7.70;;;5.28;;
21274;SDS011;36472;52.170;20.884;2023-06-24T11:35:05;5.00;;;4.28;;
21274;SDS011;36472;52.170;20.884;2023-06-24T11:42:09;6.63;;;5.05;;
21274;SDS011;36472;52.170;20.884;2023-06-24T11:44:43;6.28;;;5.60;;
21274;SDS011;36472;52.170;20.884;2023-06-24T11:47:12;8.75;;;5.80;;
21274;SDS011;36472;52.170;20.884;2023-06-24T11:49:50;5.95;;;5.10;;
21274;SDS011;36472;52.170;20.884;2023-06-24T11:52:27;6.72;;;4.82;;
21274;SDS011;36472;52.170;20.884;2023-06-24T11:55:00;7.18;;;5.72;;
21274;SDS011;36472;52.170;20.884;2023-06-24T12:00:24;8.23;;;5.20;;
21274;SDS011;36472;52.170;20.884;2023-06-24T12:02:55;5.47;;;4.97;;
21274;SDS011;36472;52.170;20.884;2023-06-24T12:05:27;6.72;;;5.22;;
21274;SDS011;36472;52.170;20.884;2023-06-24T12:07:58;6.13;;;4.82;;
21274;SDS011;36472;52.170;20.884;2023-06-24T12:10:29;6.35;;;4.80;;
21274;SDS011;36472;52.170;20.884;2023-06-24T12:17:34;6.53;;;4.75;;
21274;SDS011;36472;52.170;20.884;2023-06-24T12:20:03;4.80;;;4.35;;
21274;SDS011;36472;52.170;20.884;2023-06-24T12:22:35;7.10;;;4.68;;
21274;SDS011;36472;52.170;20.884;2023-06-24T12:25:04;6.18;;;4.70;;
21274;SDS011;36472;52.170;20.884;2023-06-24T12:27:34;7.35;;;4.90;;
21274;SDS011;36472;52.170;20.884;2023-06-24T12:30:04;5.00;;;4.50;;
21274;SDS011;36472;52.170;20.884;2023-06-24T12:32:36;7.90;;;5.18;;
21274;SDS011;36472;52.170;20.884;2023-06-24T12:35:06;6.78;;;4.88;;
21274;SDS011;36472;52.170;20.884;2023-06-24T12:37:36;4.93;;;4.43;;
21274;SDS011;36472;52.170;20.884;2023-06-24T12:40:06;5.70;;;4.82;;
21274;SDS011;36472;52.170;20.884;2023-06-24T12:42:36;8.63;;;5.00;;
21274;SDS011;36472;52.170;20.884;2023-06-24T12:45:05;7.82;;;4.80;;
21274;SDS011;36472;52.170;20.884;2023-06-24T12:47:38;5.72;;;5.03;;
21274;SDS011;36472;52.170;20.884;2023-06-24T12:50:07;5.80;;;4.93;;
21274;SDS011;36472;52.170;20.884;2023-06-24T12:52:37;6.75;;;4.90;;
21274;SDS011;36472;52.170;20.884;2023-06-24T12:55:06;6.43;;;5.22;;
21274;SDS011;36472;52.170;20.884;2023-06-24T12:57:40;6.05;;;4.88;;
21274;SDS011;36472;52.170;20.884;2023-06-24T13:04:42;5.57;;;4.28;;
21274;SDS011;36472;52.170;20.884;2023-06-24T13:07:11;6.20;;;4.90;;
21274;SDS011;36472;52.170;20.884;2023-06-24T13:09:42;6.43;;;4.90;;
21274;SDS011;36472;52.170;20.884;2023-06-24T13:12:11;6.38;;;4.93;;
21274;SDS011;36472;52.170;20.884;2023-06-24T13:14:41;6.90;;;5.15;;
21274;SDS011;36472;52.170;20.884;2023-06-24T13:17:09;7.43;;;5.22;;
21274;SDS011;36472;52.170;20.884;2023-06-24T13:19:38;5.95;;;4.93;;
21274;SDS011;36472;52.170;20.884;2023-06-24T13:22:09;5.82;;;5.22;;
21274;SDS011;36472;52.170;20.884;2023-06-24T13:24:38;7.07;;;5.47;;
21274;SDS011;36472;52.170;20.884;2023-06-24T13:27:07;6.15;;;5.40;;
21274;SDS011;36472;52.170;20.884;2023-06-24T13:29:36;7.57;;;5.45;;
21274;SDS011;36472;52.170;20.884;2023-06-24T13:32:05;6.43;;;5.35;;
21274;SDS011;36472;52.170;20.884;2023-06-24T13:34:36;7.72;;;5.60;;
21274;SDS011;36472;52.170;20.884;2023-06-24T13:37:04;5.88;;;5.22;;
21274;SDS011;36472;52.170;20.884;2023-06-24T13:39:35;6.57;;;4.72;;
21274;SDS011;36472;52.170;20.884;2023-06-24T13:42:04;5.25;;;4.32;;
21274;SDS011;36472;52.170;20.884;2023-06-24T13:44:34;4.85;;;3.75;;
21274;SDS011;36472;52.170;20.884;2023-06-24T13:51:36;3.78;;;3.17;;
21274;SDS011;36472;52.170;20.884;2023-06-24T13:54:05;5.65;;;3.60;;
21274;SDS011;36472;52.170;20.884;2023-06-24T13:56:35;4.90;;;3.28;;
21274;SDS011;36472;52.170;20.884;2023-06-24T13:59:04;4.13;;;3.35;;
21274;SDS011;36472;52.170;20.884;2023-06-24T14:01:34;5.75;;;3.53;;
21274;SDS011;36472;52.170;20.884;2023-06-24T14:04:02;6.00;;;3.70;;
21274;SDS011;36472;52.170;20.884;2023-06-24T14:06:33;3.95;;;3.35;;
21274;SDS011;36472;52.170;20.884;2023-06-24T14:13:35;5.70;;;3.53;;
21274;SDS011;36472;52.170;20.884;2023-06-24T14:16:04;4.75;;;3.58;;
21274;SDS011;36472;52.170;20.884;2023-06-24T14:18:33;4.35;;;3.90;;
21274;SDS011;36472;52.170;20.884;2023-06-24T14:21:03;5.53;;;3.78;;
21274;SDS011;36472;52.170;20.884;2023-06-24T14:23:34;7.47;;;4.20;;
21274;SDS011;36472;52.170;20.884;2023-06-24T14:30:36;5.80;;;4.05;;
21274;SDS011;36472;52.170;20.884;2023-06-24T14:33:05;6.53;;;4.07;;
21274;SDS011;36472;52.170;20.884;2023-06-24T14:35:34;4.78;;;3.97;;
21274;SDS011;36472;52.170;20.884;2023-06-24T14:38:03;5.85;;;4.20;;
21274;SDS011;36472;52.170;20.884;2023-06-24T14:40:32;4.80;;;4.28;;
21274;SDS011;36472;52.170;20.884;2023-06-24T14:43:02;4.88;;;3.92;;
21274;SDS011;36472;52.170;20.884;2023-06-24T14:50:04;4.97;;;4.25;;
21274;SDS011;36472;52.170;20.884;2023-06-24T14:52:34;5.72;;;4.60;;
21274;SDS011;36472;52.170;20.884;2023-06-24T14:55:04;6.95;;;4.88;;
21274;SDS011;36472;52.170;20.884;2023-06-24T14:57:34;8.55;;;5.05;;
21274;SDS011;36472;52.170;20.884;2023-06-24T15:00:06;7.25;;;4.65;;
21274;SDS011;36472;52.170;20.884;2023-06-24T15:02:36;10.23;;;5.00;;
21274;SDS011;36472;52.170;20.884;2023-06-24T15:09:38;6.65;;;4.68;;
21274;SDS011;36472;52.170;20.884;2023-06-24T15:12:07;7.43;;;4.63;;
21274;SDS011;36472;52.170;20.884;2023-06-24T15:14:36;6.65;;;4.15;;
21274;SDS011;36472;52.170;20.884;2023-06-24T15:17:05;6.55;;;5.05;;
21274;SDS011;36472;52.170;20.884;2023-06-24T15:19:34;5.13;;;4.63;;
21274;SDS011;36472;52.170;20.884;2023-06-24T15:22:03;6.75;;;4.80;;
21274;SDS011;36472;52.170;20.884;2023-06-24T15:24:33;7.13;;;5.38;;
21274;SDS011;36472;52.170;20.884;2023-06-24T15:31:36;5.75;;;5.15;;
21274;SDS011;36472;52.170;20.884;2023-06-24T15:34:05;6.78;;;5.38;;
21274;SDS011;36472;52.170;20.884;2023-06-24T15:36:34;7.13;;;5.28;;
21274;SDS011;36472;52.170;20.884;2023-06-24T15:39:03;8.32;;;5.22;;
21274;SDS011;36472;52.170;20.884;2023-06-24T15:41:32;5.22;;;4.72;;
21274;SDS011;36472;52.170;20.884;2023-06-24T15:44:04;8.23;;;5.25;;
21274;SDS011;36472;52.170;20.884;2023-06-24T15:46:33;5.30;;;4.60;;
21274;SDS011;36472;52.170;20.884;2023-06-24T15:49:03;7.55;;;5.00;;
21274;SDS011;36472;52.170;20.884;2023-06-24T15:51:32;6.07;;;4.60;;
21274;SDS011;36472;52.170;20.884;2023-06-24T15:54:01;6.88;;;4.82;;
21274;SDS011;36472;52.170;20.884;2023-06-24T15:56:30;6.55;;;4.80;;
21274;SDS011;36472;52.170;20.884;2023-06-24T15:58:59;7.72;;;4.55;;
21274;SDS011;36472;52.170;20.884;2023-06-24T16:01:28;7.47;;;4.50;;
21274;SDS011;36472;52.170;20.884;2023-06-24T16:03:59;5.68;;;4.55;;
21274;SDS011;36472;52.170;20.884;2023-06-24T16:06:28;5.93;;;4.82;;
21274;SDS011;36472;52.170;20.884;2023-06-24T16:13:28;6.53;;;3.90;;
21274;SDS011;36472;52.170;20.884;2023-06-24T16:15:58;4.72;;;3.63;;
21274;SDS011;36472;52.170;20.884;2023-06-24T16:18:27;9.32;;;3.95;;
21274;SDS011;36472;52.170;20.884;2023-06-24T16:20:58;9.95;;;3.78;;
21274;SDS011;36472;52.170;20.884;2023-06-24T16:23:27;5.45;;;4.25;;
21274;SDS011;36472;52.170;20.884;2023-06-24T16:25:56;3.58;;;3.28;;
21274;SDS011;36472;52.170;20.884;2023-06-24T16:28:25;4.05;;;3.42;;
21274;SDS011;36472;52.170;20.884;2023-06-24T16:30:54;3.97;;;3.35;;
21274;SDS011;36472;52.170;20.884;2023-06-24T16:33:23;6.63;;;3.90;;
21274;SDS011;36472;52.170;20.884;2023-06-24T16:35:52;5.05;;;4.13;;
21274;SDS011;36472;52.170;20.884;2023-06-24T16:38:22;5.15;;;3.92;;
21274;SDS011;36472;52.170;20.884;2023-06-24T16:40:51;7.22;;;3.88;;
21274;SDS011;36472;52.170;20.884;2023-06-24T16:43:20;5.82;;;4.63;;
21274;SDS011;36472;52.170;20.884;2023-06-24T16:45:49;5.68;;;3.90;;